createdAt,value
2023-04-24T00:01:02.427Z,101019.16
2023-04-24T00:03:31.622Z,101026.25
2023-04-24T00:06:00.341Z,101018.88
2023-04-24T00:08:28.101Z,101020.91
2023-04-24T00:10:55.787Z,101025.66
2023-04-24T00:13:23.711Z,101024.63
2023-04-24T00:15:51.499Z,101024.63
2023-04-24T00:18:20.846Z,101021.72
2023-04-24T00:20:48.678Z,101021.47
2023-04-24T00:23:16.960Z,101034.91
2023-04-24T00:25:44.767Z,101034.22
2023-04-24T00:28:12.796Z,101038.25
2023-04-24T00:30:41.642Z,101040.81
2023-04-24T00:33:10.220Z,101036.41
2023-04-24T00:35:37.829Z,101036.88
2023-04-24T00:38:05.788Z,101045.88
2023-04-24T00:40:34.169Z,101037.72
2023-04-24T00:43:03.755Z,101036.00
2023-04-24T00:45:32.564Z,101035.47
2023-04-24T00:48:00.876Z,101041.75
2023-04-24T00:50:28.853Z,101042.63
2023-04-24T00:52:57.457Z,101036.31
2023-04-24T00:55:27.050Z,101043.22
2023-04-24T00:57:55.311Z,101039.69
2023-04-24T01:00:23.628Z,101036.19
2023-04-24T01:02:53.380Z,101034.38
2023-04-24T01:05:21.254Z,101027.63
2023-04-24T01:07:50.347Z,101031.22
2023-04-24T01:10:19.129Z,101029.16
2023-04-24T01:12:48.076Z,101033.91
2023-04-24T01:15:16.795Z,101039.56
2023-04-24T01:17:45.085Z,101023.47
2023-04-24T01:20:12.888Z,101028.41
2023-04-24T01:22:43.012Z,101021.84
2023-04-24T01:25:11.066Z,101015.59
2023-04-24T01:27:39.173Z,101014.78
2023-04-24T01:30:10.100Z,101021.78
2023-04-24T01:32:38.138Z,101017.22
2023-04-24T01:35:08.607Z,101011.94
2023-04-24T01:37:38.697Z,101006.88
2023-04-24T01:40:11.582Z,101007.56
2023-04-24T01:42:40.858Z,100997.91
2023-04-24T01:45:11.821Z,101003.16
2023-04-24T01:47:40.010Z,100994.00
2023-04-24T01:50:10.654Z,100996.88
2023-04-24T01:52:40.724Z,101004.91
2023-04-24T01:55:09.045Z,100998.28
2023-04-24T01:57:36.975Z,100996.75
2023-04-24T02:00:06.281Z,100991.81
2023-04-24T02:02:41.722Z,100995.06
2023-04-24T02:05:12.026Z,100989.09
2023-04-24T02:07:42.717Z,101002.03
2023-04-24T02:10:11.404Z,100995.56
2023-04-24T02:12:45.674Z,100990.78
2023-04-24T02:15:15.140Z,100992.84
2023-04-24T02:17:43.388Z,101002.22
2023-04-24T02:20:13.308Z,100997.44
2023-04-24T02:22:43.586Z,100994.38
2023-04-24T02:25:11.416Z,101000.31
2023-04-24T02:27:41.347Z,101009.19
2023-04-24T02:30:10.163Z,101002.56
2023-04-24T02:32:40.395Z,101003.56
2023-04-24T02:35:12.351Z,101001.19
2023-04-24T02:37:40.108Z,101001.50
2023-04-24T02:40:11.927Z,101000.84
2023-04-24T02:42:40.561Z,101008.50
2023-04-24T02:45:08.837Z,101002.84
2023-04-24T02:47:37.134Z,101002.19
2023-04-24T02:50:06.068Z,101001.69
2023-04-24T02:52:34.871Z,101003.72
2023-04-24T02:55:02.926Z,101004.88
2023-04-24T02:57:31.538Z,101014.75
2023-04-24T02:59:59.680Z,101015.09
2023-04-24T03:02:29.346Z,101007.59
2023-04-24T03:04:58.634Z,101000.06
2023-04-24T03:07:28.856Z,101000.59
2023-04-24T03:09:59.591Z,101000.41
2023-04-24T03:12:28.780Z,101001.09
2023-04-24T03:14:56.664Z,101003.44
2023-04-24T03:17:26.607Z,101005.84
2023-04-24T03:19:54.963Z,101012.13
2023-04-24T03:22:23.010Z,101003.94
2023-04-24T03:24:51.621Z,101012.13
2023-04-24T03:27:20.408Z,101015.50
2023-04-24T03:29:56.787Z,101016.03
2023-04-24T03:32:43.857Z,101010.88
2023-04-24T03:35:17.136Z,101010.34
2023-04-24T03:37:45.154Z,101019.19
2023-04-24T03:40:34.865Z,101022.25
2023-04-24T03:43:04.683Z,101020.03
2023-04-24T03:45:32.756Z,101016.91
2023-04-24T03:48:01.018Z,101023.00
2023-04-24T03:50:30.419Z,101021.09
2023-04-24T03:52:59.188Z,101021.44
2023-04-24T03:55:37.336Z,101014.06
2023-04-24T03:58:05.184Z,101013.09
2023-04-24T04:00:34.400Z,101014.53
2023-04-24T04:03:22.394Z,101016.38
2023-04-24T04:05:52.650Z,101018.69
2023-04-24T04:08:22.539Z,101030.94
2023-04-24T04:10:50.264Z,101030.44
2023-04-24T04:13:17.929Z,101030.53
2023-04-24T04:15:46.008Z,101026.53
2023-04-24T04:18:14.379Z,101018.69
2023-04-24T04:20:42.601Z,101029.72
2023-04-24T04:23:11.819Z,101023.91
2023-04-24T04:26:02.674Z,101025.72
2023-04-24T04:28:41.217Z,101020.91
2023-04-24T04:31:10.694Z,101021.69
2023-04-24T04:33:40.684Z,101026.81
2023-04-24T04:36:10.037Z,101021.63
2023-04-24T04:38:44.326Z,101025.84
2023-04-24T04:41:41.618Z,101030.00
2023-04-24T04:44:11.349Z,101035.72
2023-04-24T04:46:39.733Z,101036.84
2023-04-24T04:49:20.053Z,101039.69
2023-04-24T04:51:48.323Z,101030.44
2023-04-24T04:54:17.388Z,101031.56
2023-04-24T04:56:45.856Z,101030.53
2023-04-24T04:59:14.173Z,101027.63
2023-04-24T05:01:42.500Z,101031.31
2023-04-24T05:04:12.128Z,101029.72
2023-04-24T05:06:41.054Z,101027.50
2023-04-24T05:09:09.051Z,101032.44
2023-04-24T05:11:44.633Z,101026.88
2023-04-24T05:14:13.919Z,101035.13
2023-04-24T05:16:42.475Z,101033.81
2023-04-24T05:19:13.052Z,101032.13
2023-04-24T05:21:43.815Z,101033.53
2023-04-24T05:24:12.667Z,101035.75
2023-04-24T05:27:04.593Z,101020.59
2023-04-24T05:29:38.369Z,101029.53
2023-04-24T05:32:08.419Z,101030.22
2023-04-24T05:34:37.771Z,101025.56
2023-04-24T05:37:09.475Z,101026.84
2023-04-24T05:39:37.811Z,101022.59
2023-04-24T05:42:06.854Z,101013.09
2023-04-24T05:44:34.992Z,101011.38
2023-04-24T05:47:03.546Z,101013.06
2023-04-24T05:49:31.432Z,101010.31
2023-04-24T05:52:00.098Z,101017.31
2023-04-24T05:54:28.292Z,101015.00
2023-04-24T05:56:57.832Z,101017.09
2023-04-24T05:59:40.280Z,101021.53
2023-04-24T06:02:09.107Z,101018.34
2023-04-24T06:04:37.268Z,101018.94
2023-04-24T06:07:06.068Z,101010.09
2023-04-24T06:09:34.284Z,101018.31
2023-04-24T06:12:02.706Z,101016.25
2023-04-24T06:14:42.981Z,101009.94
2023-04-24T06:17:17.896Z,101012.22
2023-04-24T06:19:47.498Z,101013.94
2023-04-24T06:22:16.474Z,101017.09
2023-04-24T06:24:45.228Z,101021.94
2023-04-24T06:27:14.532Z,101021.91
2023-04-24T06:29:44.537Z,101024.47
2023-04-24T06:32:13.508Z,101024.88
2023-04-24T06:34:41.739Z,101029.28
2023-04-24T06:37:09.442Z,101018.00
2023-04-24T06:39:40.211Z,101021.34
2023-04-24T06:42:10.675Z,101024.88
2023-04-24T06:44:42.249Z,101027.16
2023-04-24T06:47:13.094Z,101025.41
2023-04-24T06:49:41.434Z,101025.75
2023-04-24T06:52:10.152Z,101028.19
2023-04-24T06:54:47.229Z,101026.06
2023-04-24T06:57:15.504Z,101037.00
2023-04-24T06:59:44.171Z,101034.81
2023-04-24T07:02:12.698Z,101036.22
2023-04-24T07:04:41.413Z,101037.63
2023-04-24T07:07:14.316Z,101041.41
2023-04-24T07:09:44.116Z,101038.25
2023-04-24T07:12:12.726Z,101047.44
2023-04-24T07:14:44.749Z,101029.84
2023-04-24T07:17:15.391Z,101025.00
2023-04-24T07:19:43.786Z,101027.00
2023-04-24T07:22:18.062Z,101024.91
2023-04-24T07:24:46.716Z,101026.13
2023-04-24T07:27:16.344Z,101023.66
2023-04-24T07:29:44.587Z,101018.94
2023-04-24T07:32:12.826Z,101025.25
2023-04-24T07:34:40.687Z,101019.72
2023-04-24T07:37:14.385Z,101011.44
2023-04-24T07:39:44.071Z,101007.94
2023-04-24T07:42:12.490Z,101015.03
2023-04-24T07:44:41.832Z,101012.63
2023-04-24T07:47:10.097Z,101008.78
2023-04-24T07:49:38.208Z,101002.22
2023-04-24T07:52:06.600Z,101017.59
2023-04-24T07:54:36.403Z,101005.22
2023-04-24T07:57:04.524Z,101005.91
2023-04-24T07:59:32.324Z,101000.69
2023-04-24T08:02:02.600Z,101001.81
2023-04-24T08:04:31.837Z,100997.31
2023-04-24T08:06:59.989Z,100982.44
2023-04-24T08:09:30.016Z,100992.28
2023-04-24T08:11:59.439Z,100993.34
2023-04-24T08:14:28.126Z,100992.19
2023-04-24T08:16:57.228Z,100993.00
2023-04-24T08:19:25.049Z,101000.91
2023-04-24T08:21:53.588Z,100984.19
2023-04-24T08:24:21.517Z,100988.25
2023-04-24T08:26:52.121Z,100970.00
2023-04-24T08:29:19.816Z,100971.53
2023-04-24T08:31:49.647Z,100965.25
2023-04-24T08:34:17.492Z,100964.41
2023-04-24T08:36:47.583Z,100958.94
2023-04-24T08:39:16.458Z,100961.19
2023-04-24T08:41:44.775Z,100967.53
2023-04-24T08:44:13.976Z,100962.47
2023-04-24T08:46:42.350Z,100957.97
2023-04-24T08:49:10.207Z,100956.75
2023-04-24T08:51:38.718Z,100955.75
2023-04-24T08:54:08.924Z,100938.47
2023-04-24T08:56:40.856Z,100946.00
2023-04-24T08:59:10.489Z,100950.13
2023-04-24T09:01:40.912Z,100944.22
2023-04-24T09:04:11.556Z,100946.03
2023-04-24T09:06:42.818Z,100935.13
2023-04-24T09:09:11.176Z,100943.47
2023-04-24T09:11:40.240Z,100942.63
2023-04-24T09:14:08.595Z,100939.22
2023-04-24T09:16:38.953Z,100942.81
2023-04-24T09:19:06.865Z,100925.00
2023-04-24T09:21:37.615Z,100927.69
2023-04-24T09:24:08.463Z,100939.72
2023-04-24T09:26:37.151Z,100937.59
2023-04-24T09:29:05.590Z,100944.88
2023-04-24T09:31:33.624Z,100938.41
2023-04-24T09:34:07.187Z,100933.34
2023-04-24T09:36:43.709Z,100932.00
2023-04-24T09:39:18.010Z,100919.19
2023-04-24T09:41:50.875Z,100918.03
2023-04-24T09:44:31.542Z,100937.34
2023-04-24T09:47:00.069Z,100920.72
2023-04-24T09:49:32.003Z,100925.22
2023-04-24T09:52:09.957Z,100917.56
2023-04-24T09:54:39.678Z,100917.38
2023-04-24T09:57:11.366Z,100917.81
2023-04-24T09:59:52.321Z,100923.69
2023-04-24T10:02:26.197Z,100920.34
2023-04-24T10:05:00.755Z,100912.31
2023-04-24T10:07:32.876Z,100913.88
2023-04-24T10:10:02.112Z,100911.00
2023-04-24T10:12:31.021Z,100904.19
2023-04-24T10:14:59.196Z,100912.03
2023-04-24T10:17:27.067Z,100903.97
2023-04-24T10:20:04.669Z,100910.34
2023-04-24T10:22:32.976Z,100902.88
2023-04-24T10:25:01.012Z,100899.28
2023-04-24T10:27:29.808Z,100902.44
2023-04-24T10:29:58.670Z,100899.94
2023-04-24T10:32:31.988Z,100903.28
2023-04-24T10:34:59.823Z,100898.63
2023-04-24T10:37:27.528Z,100905.44
2023-04-24T10:39:57.304Z,100902.19
2023-04-24T10:42:25.338Z,100894.41
2023-04-24T10:44:52.947Z,100901.28
2023-04-24T10:47:20.630Z,100893.88
2023-04-24T10:49:53.237Z,100902.97
2023-04-24T10:52:21.949Z,100897.84
2023-04-24T10:54:50.568Z,100892.00
2023-04-24T10:57:30.003Z,100888.22
2023-04-24T11:00:22.405Z,100894.00
2023-04-24T11:02:52.102Z,100887.06
2023-04-24T11:05:21.051Z,100881.47
2023-04-24T11:08:19.690Z,100882.50
2023-04-24T11:10:49.063Z,100878.47
2023-04-24T11:13:18.541Z,100882.81
2023-04-24T11:15:46.152Z,100885.78
2023-04-24T11:18:16.073Z,100888.47
2023-04-24T11:20:44.861Z,100875.91
2023-04-24T11:23:13.594Z,100881.69
2023-04-24T11:25:41.717Z,100871.13
2023-04-24T11:28:09.440Z,100866.72
2023-04-24T11:30:38.769Z,100856.44
2023-04-24T11:33:06.512Z,100859.38
2023-04-24T11:35:40.451Z,100864.47
2023-04-24T11:38:19.426Z,100860.63
2023-04-24T11:40:51.921Z,100866.81
2023-04-24T11:43:20.403Z,100863.44
2023-04-24T11:45:51.329Z,100863.09
2023-04-24T11:48:23.667Z,100863.50
2023-04-24T11:50:51.715Z,100850.44
2023-04-24T11:53:22.973Z,100859.72
2023-04-24T11:55:50.416Z,100860.38
2023-04-24T11:58:17.972Z,100843.44
2023-04-24T12:00:46.799Z,100852.28
2023-04-24T12:03:15.020Z,100837.69
2023-04-24T12:05:42.797Z,100828.19
2023-04-24T12:08:10.674Z,100833.75
2023-04-24T12:10:38.543Z,100831.69
2023-04-24T12:13:06.581Z,100827.16
2023-04-24T12:15:34.507Z,100829.75
2023-04-24T12:18:02.246Z,100816.78
2023-04-24T12:20:31.778Z,100833.09
2023-04-24T12:23:00.508Z,100825.59
2023-04-24T12:25:29.288Z,100829.75
2023-04-24T12:28:06.024Z,100821.50
2023-04-24T12:30:35.167Z,100828.25
2023-04-24T12:33:03.671Z,100820.41
2023-04-24T12:35:36.859Z,100824.91
2023-04-24T12:38:09.184Z,100806.84
2023-04-24T12:40:36.884Z,100814.34
2023-04-24T12:43:13.769Z,100811.84
2023-04-24T12:45:41.264Z,100803.97
2023-04-24T12:48:08.977Z,100809.09
2023-04-24T12:50:36.609Z,100791.72
2023-04-24T12:53:04.433Z,100789.38
2023-04-24T12:55:32.716Z,100795.16
2023-04-24T12:58:00.194Z,100802.31
2023-04-24T13:00:27.902Z,100800.63
2023-04-24T13:02:55.693Z,100800.59
2023-04-24T13:05:25.257Z,100792.53
2023-04-24T13:07:52.972Z,100792.34
2023-04-24T13:10:20.582Z,100782.00
2023-04-24T13:12:48.103Z,100776.94
2023-04-24T13:15:18.348Z,100791.47
2023-04-24T13:17:46.035Z,100783.50
2023-04-24T13:20:13.585Z,100790.66
2023-04-24T13:22:41.299Z,100781.50
2023-04-24T13:25:08.980Z,100787.94
2023-04-24T13:27:36.920Z,100787.34
2023-04-24T13:30:04.683Z,100777.47
2023-04-24T13:32:33.449Z,100776.28
2023-04-24T13:35:01.305Z,100766.69
2023-04-24T13:37:29.276Z,100776.06
2023-04-24T13:39:57.094Z,100769.97
2023-04-24T13:42:24.667Z,100766.31
2023-04-24T13:44:52.845Z,100774.16
2023-04-24T13:47:20.295Z,100775.28
2023-04-24T13:49:47.893Z,100779.31
2023-04-24T13:52:15.777Z,100772.41
2023-04-24T13:54:43.298Z,100760.84
2023-04-24T13:57:10.892Z,100759.63
2023-04-24T13:59:38.554Z,100752.19
2023-04-24T14:02:06.138Z,100748.38
2023-04-24T14:04:34.336Z,100757.00
2023-04-24T14:07:01.952Z,100752.66
2023-04-24T14:09:29.542Z,100754.50
2023-04-24T14:11:56.994Z,100745.88
2023-04-24T14:14:24.567Z,100753.00
2023-04-24T14:16:52.285Z,100751.03
2023-04-24T14:19:21.113Z,100750.56
2023-04-24T14:21:48.577Z,100752.69
2023-04-24T14:24:16.692Z,100759.00
2023-04-24T14:26:44.838Z,100754.28
2023-04-24T14:29:15.190Z,100752.03
2023-04-24T14:31:43.592Z,100751.75
2023-04-24T14:34:11.185Z,100744.44
2023-04-24T14:36:38.792Z,100744.63
2023-04-24T14:39:08.231Z,100746.53
2023-04-24T14:41:37.102Z,100744.13
2023-04-24T14:44:05.112Z,100735.16
2023-04-24T14:46:32.741Z,100739.56
2023-04-24T14:49:00.259Z,100738.13
2023-04-24T14:51:28.123Z,100730.66
2023-04-24T14:53:55.712Z,100731.31
2023-04-24T14:56:23.182Z,100739.50
2023-04-24T14:58:50.976Z,100737.06
2023-04-24T15:01:19.118Z,100732.75
2023-04-24T15:03:47.290Z,100732.28
2023-04-24T15:06:15.089Z,100728.34
2023-04-24T15:08:43.146Z,100729.47
2023-04-24T15:11:11.041Z,100723.38
2023-04-24T15:13:38.915Z,100725.84
2023-04-24T15:16:06.663Z,100723.63
2023-04-24T15:18:34.598Z,100716.06
2023-04-24T15:21:02.061Z,100718.31
2023-04-24T15:23:29.775Z,100714.16
2023-04-24T15:25:57.699Z,100721.13
2023-04-24T15:28:25.923Z,100719.19
2023-04-24T15:30:53.390Z,100721.97
2023-04-24T15:33:20.993Z,100731.22
2023-04-24T15:35:49.755Z,100720.50
2023-04-24T15:38:17.287Z,100716.63
2023-04-24T15:40:45.780Z,100715.06
2023-04-24T15:43:13.258Z,100719.88
2023-04-24T15:45:41.006Z,100713.78
2023-04-24T15:48:08.569Z,100719.75
2023-04-24T15:50:36.084Z,100718.22
2023-04-24T15:53:03.661Z,100718.44
2023-04-24T15:55:31.720Z,100712.28
2023-04-24T15:57:59.270Z,100711.63
2023-04-24T16:00:28.956Z,100716.53
2023-04-24T16:02:56.540Z,100714.78
2023-04-24T16:05:24.685Z,100719.09
2023-04-24T16:07:52.197Z,100722.53
2023-04-24T16:10:19.839Z,100723.16
2023-04-24T16:12:47.400Z,100716.44
2023-04-24T16:15:15.008Z,100715.81
2023-04-24T16:17:42.475Z,100716.28
2023-04-24T16:20:10.758Z,100718.22
2023-04-24T16:22:39.278Z,100717.28
2023-04-24T16:25:07.656Z,100717.09
2023-04-24T16:27:35.242Z,100726.03
2023-04-24T16:30:03.132Z,100715.91
2023-04-24T16:32:31.238Z,100718.28
2023-04-24T16:34:58.922Z,100714.28
2023-04-24T16:37:26.628Z,100714.13
2023-04-24T16:39:55.227Z,100724.19
2023-04-24T16:42:22.756Z,100719.50
2023-04-24T16:44:50.757Z,100711.69
2023-04-24T16:47:18.887Z,100720.75
2023-04-24T16:49:46.418Z,100716.81
2023-04-24T16:52:14.001Z,100716.81
2023-04-24T16:54:41.564Z,100716.66
2023-04-24T16:57:09.127Z,100717.13
2023-04-24T16:59:37.146Z,100716.13
2023-04-24T17:02:05.054Z,100713.28
2023-04-24T17:04:35.855Z,100721.81
2023-04-24T17:07:03.660Z,100711.09
2023-04-24T17:09:31.307Z,100714.31
2023-04-24T17:11:58.818Z,100713.28
2023-04-24T17:14:26.663Z,100709.50
2023-04-24T17:16:54.337Z,100718.16
2023-04-24T17:19:22.024Z,100720.75
2023-04-24T17:21:49.484Z,100714.00
2023-04-24T17:24:16.932Z,100711.25
2023-04-24T17:26:44.477Z,100721.38
2023-04-24T17:29:13.349Z,100711.91
2023-04-24T17:31:41.819Z,100717.38
2023-04-24T17:34:10.322Z,100714.41
2023-04-24T17:36:38.560Z,100717.59
2023-04-24T17:39:06.410Z,100720.13
2023-04-24T17:41:34.266Z,100719.47
2023-04-24T17:44:01.785Z,100734.69
2023-04-24T17:46:29.716Z,100727.91
2023-04-24T17:48:57.396Z,100722.41
2023-04-24T17:51:24.929Z,100723.63
2023-04-24T17:53:52.448Z,100722.38
2023-04-24T17:56:19.993Z,100721.47
2023-04-24T17:58:47.816Z,100718.94
2023-04-24T18:01:15.644Z,100725.34
2023-04-24T18:03:44.599Z,100723.63
2023-04-24T18:06:13.750Z,100717.22
2023-04-24T18:08:41.867Z,100719.34
2023-04-24T18:11:09.383Z,100723.91
2023-04-24T18:13:38.636Z,100718.66
2023-04-24T18:16:06.149Z,100724.72
2023-04-24T18:18:33.895Z,100722.34
2023-04-24T18:21:01.368Z,100724.22
2023-04-24T18:23:29.147Z,100716.56
2023-04-24T18:25:56.661Z,100719.53
2023-04-24T18:28:24.394Z,100719.28
2023-04-24T18:30:51.897Z,100724.13
2023-04-24T18:33:19.429Z,100724.94
2023-04-24T18:35:46.911Z,100724.69
2023-04-24T18:38:14.384Z,100724.03
2023-04-24T18:40:42.229Z,100718.63
2023-04-24T18:43:09.647Z,100719.44
2023-04-24T18:45:37.145Z,100720.00
2023-04-24T18:48:04.895Z,100711.31
2023-04-24T18:50:33.421Z,100722.91
2023-04-24T18:53:01.600Z,100711.06
2023-04-24T18:55:29.571Z,100718.22
2023-04-24T18:57:57.097Z,100714.63
2023-04-24T19:00:24.614Z,100723.69
2023-04-24T19:02:52.196Z,100708.97
2023-04-24T19:05:19.859Z,100712.56
2023-04-24T19:07:47.714Z,100703.75
2023-04-24T19:10:15.259Z,100711.09
2023-04-24T19:12:42.785Z,100706.50
2023-04-24T19:15:11.927Z,100702.97
2023-04-24T19:17:39.771Z,100703.19
2023-04-24T19:20:08.555Z,100698.72
2023-04-24T19:22:37.116Z,100705.41
2023-04-24T19:25:05.503Z,100701.88
2023-04-24T19:27:33.290Z,100707.91
2023-04-24T19:30:00.850Z,100697.13
2023-04-24T19:32:29.678Z,100705.75
2023-04-24T19:34:58.074Z,100704.03
2023-04-24T19:37:26.476Z,100685.97
2023-04-24T19:39:54.157Z,100704.03
2023-04-24T19:42:35.782Z,100697.50
2023-04-24T19:45:12.708Z,100691.31
2023-04-24T19:47:42.754Z,100694.81
2023-04-24T19:50:12.354Z,100693.66
2023-04-24T19:52:40.136Z,100691.97
2023-04-24T19:55:09.181Z,100688.50
2023-04-24T19:57:36.957Z,100685.03
2023-04-24T20:00:05.194Z,100685.00
2023-04-24T20:02:36.248Z,100686.22
2023-04-24T20:05:07.659Z,100685.38
2023-04-24T20:07:36.951Z,100676.06
2023-04-24T20:10:06.270Z,100674.97
2023-04-24T20:12:36.941Z,100679.75
2023-04-24T20:15:05.294Z,100682.03
2023-04-24T20:17:33.681Z,100667.63
2023-04-24T20:20:01.409Z,100673.69
2023-04-24T20:22:30.465Z,100675.25
2023-04-24T20:24:59.805Z,100676.41
2023-04-24T20:27:27.491Z,100663.34
2023-04-24T20:29:57.377Z,100662.75
2023-04-24T20:32:27.996Z,100665.22
2023-04-24T20:34:55.737Z,100666.94
2023-04-24T20:37:25.233Z,100668.66
2023-04-24T20:39:53.119Z,100664.63
2023-04-24T20:42:21.248Z,100653.38
2023-04-24T20:44:49.106Z,100660.41
2023-04-24T20:47:17.421Z,100674.91
2023-04-24T20:49:45.124Z,100665.50
2023-04-24T20:52:14.366Z,100664.38
2023-04-24T20:54:42.337Z,100653.44
2023-04-24T20:57:10.649Z,100656.38
2023-04-24T20:59:39.566Z,100658.25
2023-04-24T21:02:07.752Z,100652.84
2023-04-24T21:04:38.839Z,100661.47
2023-04-24T21:07:06.664Z,100651.47
2023-04-24T21:09:34.640Z,100657.38
2023-04-24T21:12:03.353Z,100650.66
2023-04-24T21:14:32.246Z,100653.50
2023-04-24T21:17:00.375Z,100656.28
2023-04-24T21:19:28.168Z,100646.00
2023-04-24T21:21:56.362Z,100650.19
2023-04-24T21:24:24.435Z,100650.44
2023-04-24T21:26:53.090Z,100652.16
2023-04-24T21:29:23.690Z,100656.38
2023-04-24T21:31:53.006Z,100653.44
2023-04-24T21:34:20.738Z,100651.09
2023-04-24T21:36:48.578Z,100643.16
2023-04-24T21:39:16.218Z,100640.34
2023-04-24T21:41:44.397Z,100634.13
2023-04-24T21:44:12.732Z,100635.16
2023-04-24T21:46:42.915Z,100632.03
2023-04-24T21:49:10.846Z,100629.25
2023-04-24T21:51:38.933Z,100624.16
2023-04-24T21:54:07.095Z,100623.91
2023-04-24T21:56:34.765Z,100629.16
2023-04-24T21:59:03.509Z,100635.44
2023-04-24T22:01:33.443Z,100636.09
2023-04-24T22:04:03.491Z,100633.06
2023-04-24T22:06:32.542Z,100630.00
2023-04-24T22:09:01.202Z,100619.00
2023-04-24T22:11:29.199Z,100624.75
2023-04-24T22:13:56.959Z,100625.66
2023-04-24T22:16:24.734Z,100620.34
2023-04-24T22:18:55.572Z,100619.53
2023-04-24T22:21:23.548Z,100625.56
2023-04-24T22:23:52.929Z,100626.63
2023-04-24T22:26:21.256Z,100620.88
2023-04-24T22:28:50.006Z,100620.97
2023-04-24T22:31:17.909Z,100617.59
2023-04-24T22:33:46.935Z,100612.34
2023-04-24T22:36:16.187Z,100609.25
2023-04-24T22:38:43.933Z,100611.59
2023-04-24T22:41:12.751Z,100606.72
2023-04-24T22:43:40.596Z,100601.91
2023-04-24T22:46:08.300Z,100607.94
2023-04-24T22:48:36.773Z,100607.03
2023-04-24T22:51:04.642Z,100605.97
2023-04-24T22:53:32.417Z,100596.94
2023-04-24T22:56:00.349Z,100583.31
2023-04-24T22:58:28.297Z,100589.16
2023-04-24T23:00:56.479Z,100586.81
2023-04-24T23:03:25.666Z,100581.94
2023-04-24T23:05:53.901Z,100585.03
2023-04-24T23:08:21.896Z,100588.47
2023-04-24T23:10:50.043Z,100580.09
2023-04-24T23:13:18.137Z,100575.03
2023-04-24T23:15:46.519Z,100574.00
2023-04-24T23:18:14.096Z,100571.28
2023-04-24T23:20:42.052Z,100577.09
2023-04-24T23:23:09.904Z,100576.28
2023-04-24T23:25:38.205Z,100575.00
2023-04-24T23:28:05.892Z,100573.97
2023-04-24T23:30:34.616Z,100574.84
2023-04-24T23:33:02.804Z,100573.50
2023-04-24T23:35:31.108Z,100564.56
2023-04-24T23:38:00.540Z,100558.16
2023-04-24T23:40:28.284Z,100556.69
2023-04-24T23:43:06.100Z,100560.56
2023-04-24T23:45:35.834Z,100554.72
2023-04-24T23:48:04.727Z,100555.09
2023-04-24T23:50:33.401Z,100558.38
2023-04-24T23:53:01.701Z,100556.03
2023-04-24T23:55:30.265Z,100561.84
2023-04-24T23:57:58.556Z,100555.34
